Tiempo atmosférico en la estación meteorológica de Alcázar Del Rey, Cuenca (875 m.)



Fecha
DESCASC
Temp. máxima en grados centígrados (hora)
DESCASC
Temp. mínima en grados centígrados (hora)
DESCASC
Temp. media en grados centígrados
DESCASC
Racha de viento máxima en m/sg (hora)
DESCASC
Velocidad máxima media en intervalos de 10 minutos(hora)
DESCASC
Precipitaciones diarias en mm
DESCASC
Precipitaciones de 00:00 a 06:00 en mm
DESCASC
Precipitaciones de 06:00 a 12:00 en mm
DESCASC
Precipitaciones de 12:00 a 18:00 en mm
DESCASC
Precipitaciones de 18:00 a 24:00 en mm
DESCASC
17-08-2018 31.2 (17:20) 16.4 (07:10) 23.8 8.61 (20:40) 5 (19:40) 0 0 0 0 0
16-08-2018 32.1 (18:40) 20 (07:10) 26 11.11 (11:00) 7.22 (11:00) 0 0 0 0 0
15-08-2018 33.8 (17:50) 18.3 (08:00) 26 10.56 (21:50) 6.39 (22:50) 0 0 0 0 0
14-08-2018 -- (--) -- (--) -- -- (--) -- (--) -- 0 -- 0 0
13-08-2018 31.9 (18:20) 17.1 (07:30) 24.5 -- (--) -- (--) -- 0.2 0 0.2 --
12-08-2018 33.5 (17:10) 20.1 (00:00) 26.8 13.33 (18:20) 5.56 (02:40) 2.6 0 0 0 2.6
11-08-2018 34.6 (18:10) 19.1 (00:00) 26.8 -- (--) 8.06 (00:20) 0 0 0 0 0
10-08-2018 32.5 (17:10) 15.3 (00:00) 23.9 13.06 (14:30) 7.22 (12:40) 0 0 0 0 0
09-08-2018 30.3 (18:30) 17 (00:00) 23.6 -- (--) -- (--) -- 0 -- 0 0
08-08-2018 -- (--) -- (--) -- -- (--) -- (--) 0 0 0 0 0
07-08-2018 36.5 (17:40) 21.5 (00:00) 29 17.78 (22:00) 8.61 (22:00) 0 0 0 0 0
06-08-2018 -- (--) -- (--) -- 13.06 (22:40) 6.67 (22:40) 0 0 0 0 0
05-08-2018 38.9 (17:00) 20.7 (00:00) 29.8 8.33 (13:50) 4.72 (08:30) 0 0 0 0 0
04-08-2018 -- (--) -- (--) -- 9.72 (17:40) 5 (17:40) 0 0 0 0 0
03-08-2018 -- (--) -- (--) -- 10.28 (17:40) 5.56 (15:20) 0 0 0 0 0
02-08-2018 40.4 (18:20) 19.9 (00:00) 30.2 10.83 (02:40) 5.83 (02:40) 0 0 0 0 0
01-08-2018 38.5 (18:20) 19 (07:20) 28.8 7.22 (15:40) 4.72 (10:50) 0 0 0 0 0
31-07-2018 36.6 (17:50) 15.6 (00:00) 26.1 8.89 (17:10) 3.61 (15:10) 0 0 0 0 0
30-07-2018 33.9 (18:40) 13.5 (00:00) 23.7 8.61 (17:40) 3.89 (17:40) 0 0 0 0 0
29-07-2018 31.8 (19:00) 16.5 (00:00) 24.1 9.17 (13:50) 4.17 (14:10) 0 0 0 0 0
28-07-2018 33.7 (18:50) 15.5 (00:00) 24.6 8.33 (14:00) 3.61 (14:00) 0 0 0 0 0
27-07-2018 34.4 (18:30) 15.7 (00:00) 25.1 9.72 (17:20) 5 (15:40) 0 0 0 0 0
26-07-2018 35.2 (17:00) 17.5 (00:00) 26.4 7.22 (14:40) 3.61 (15:30) -- -- 0 0 0
25-07-2018 36.1 (18:10) 14.3 (00:00) 25.2 9.44 (13:40) 3.89 (15:10) 0 0 0 0 0
24-07-2018 34 (17:40) 16 (00:00) 25 9.72 (17:50) 3.33 (17:50) 0 0 0 0 0
23-07-2018 35.3 (19:00) 17.7 (00:00) 26.5 8.06 (09:30) 4.72 (09:30) 0 0 0 0 0
22-07-2018 32.2 (18:10) 17.9 (00:00) 25.1 10.83 (02:50) 6.94 (02:50) -- -- 0 0 0
21-07-2018 30.5 (19:00) 14.4 (00:00) 22.4 9.72 (23:59) 5.83 (23:59) 0 0 0 0 0
20-07-2018 31.4 (18:00) 13.9 (00:00) 22.6 9.17 (18:20) 5.28 (19:30) 0 0 0 0 0

Gráficas

Temp. máximas Temp. mínimas Temp. medias Precipitaciones Rachas de viento máximas Velocidades máximas media en intervalos de 10 minutos

Datos horarios

Fecha y hora oficial Temperatura (ºC) Velocidad del viento (km/h) Dirección del viento Racha (km/h) Dirección de racha Precipitación (mm) Presión (hPa) Tendencia (hPa) Humedad (%)
2018-08-18 23:00:00 21.4 17 Sudeste 32 Sur 0 -- -- 70
2018-08-18 22:00:00 22.4 13 Sudeste 27 Sudeste 0 -- -- 65
2018-08-18 21:00:00 24 11 Sudeste 22 Sudeste 0 -- -- 52
2018-08-18 20:00:00 25.6 15 Sudeste 33 Sudeste 0 -- -- 52
2018-08-18 19:00:00 30.1 4 Oeste 15 Oeste 0 -- -- 32
2018-08-18 18:00:00 30.8 5 Sur 17 Sudoeste 0 -- -- 32
2018-08-18 17:00:00 29.7 6 Sudeste 24 Sudeste 0 -- -- 39
2018-08-18 16:00:00 28 9 Sudeste 26 Sudeste 0 -- -- 46
2018-08-18 15:00:00 28.1 10 Sudeste 26 Sur -- -- -- 45
2018-08-18 14:00:00 27.4 11 Sudeste 23 Sudeste 0 -- -- 49
2018-08-18 13:00:00 26.4 9 Sur 23 Sudeste 0 -- -- 51
2018-08-18 12:00:00 24.4 8 Sur 22 Sur 0 -- -- 56
2018-08-18 11:00:00 22.6 9 Sudeste 20 Sudeste -- -- -- 60
2018-08-18 10:00:00 18.7 9 Nordeste 17 Nordeste 0 -- -- 69
2018-08-18 09:00:00 16 11 Nordeste 20 Nordeste 0 -- -- 75
2018-08-18 08:00:00 15 13 Nordeste 21 Nordeste 0 -- -- 78
2018-08-18 07:00:00 15.2 11 Nordeste 18 Nordeste 0 -- -- 76
2018-08-18 06:00:00 16 11 Nordeste 18 Nordeste 0 -- -- 74
2018-08-18 05:00:00 16.6 10 Nordeste 18 Nordeste 0 -- -- 72
2018-08-18 04:00:00 17.8 10 Nordeste 18 Nordeste 0 -- -- 68
2018-08-18 03:00:00 19.2 10 Nordeste 15 Este 0 -- -- 65
2018-08-18 02:00:00 19.8 8 Nordeste 18 Nordeste 0 -- -- 64
2018-08-18 01:00:00 20.6 7 Este 16 Nordeste 0 -- -- 64
2018-08-18 00:00:00 21.6 9 Este 27 Sudeste 0 -- -- 66
2018-08-17 23:00:00 22.5 16 Sudeste 28 Sudeste 0 -- -- 62
2018-08-17 22:00:00 23.4 10 Este 26 Este 0 -- -- 54
2018-08-17 21:00:00 25.5 14 Sudeste 31 Sudeste 0 -- -- 46
2018-08-17 20:00:00 28.1 17 Nordeste 30 Nordeste 0 -- -- 37
2018-08-17 19:00:00 30.8 7 Noroeste 23 Noroeste 0 -- -- 28
2018-08-17 18:00:00 30.8 11 Noroeste 30 Noroeste 0 -- -- 26
2018-08-17 17:00:00 30.9 9 Oeste 28 Sudoeste 0 -- -- 29
2018-08-17 16:00:00 30.7 6 Sudoeste 18 Oeste 0 -- -- 32
2018-08-17 15:00:00 30.3 6 Sur 17 Sudeste 0 -- -- 34
2018-08-17 14:00:00 28 6 Nordeste 13 Noroeste 0 -- -- 40
2018-08-17 13:00:00 26.8 6 Sudeste 13 Sur 0 -- -- 42
2018-08-17 12:00:00 24.5 4 Sudeste 26 Sur 0 -- -- 49
2018-08-17 11:00:00 23.1 6 Sudeste 17 Sudeste 0 -- -- 52
2018-08-17 10:00:00 20.5 8 Sudeste 17 Sudeste 0 -- -- 60
2018-08-17 09:00:00 17.5 5 Norte 10 Nordeste 0 -- -- 69
2018-08-17 08:00:00 16.6 3 Sur 17 Sur 0 -- -- 69
2018-08-17 07:00:00 16.7 0 Calma 11 Sur 0 -- -- 67
2018-08-17 06:00:00 17.2 3 Sur 6 Sudeste 0 -- -- 63
2018-08-17 05:00:00 17.9 0 Calma 8 Norte 0 -- -- 60
2018-08-17 04:00:00 19 3 Sur 8 Sur 0 -- -- 58
2018-08-17 03:00:00 19.6 4 Sudoeste 11 Este 0 -- -- 57
2018-08-17 02:00:00 20.1 4 Este 21 Este 0 -- -- 55
2018-08-17 01:00:00 21.1 12 Sudeste 25 Sudeste 0 -- -- 54
2018-08-17 00:00:00 22.8 14 Sudeste 31 Sudeste 0 -- -- 51
2018-08-16 23:00:00 23.3 12 Sudeste 21 Sudeste 0 -- -- 50
2018-08-16 22:00:00 24.1 4 Sur 8 Sur 0 -- -- 43
2018-08-16 21:00:00 25.1 0 Calma 18 Noroeste 0 -- -- 43
2018-08-16 20:00:00 26 8 Oeste 23 Oeste 0 -- -- 41
2018-08-16 19:00:00 30.1 12 Sudoeste 19 Oeste 0 -- -- 30
2018-08-16 18:00:00 30.7 5 Oeste 14 Oeste 0 -- -- 30
2018-08-16 17:00:00 28.6 6 Sudoeste 14 Sudoeste 0 -- -- 33
2018-08-16 16:00:00 29.2 7 Sur 18 Sudoeste 0 -- -- 34
2018-08-16 15:00:00 26.3 9 Sudoeste 23 Sur 0 -- -- 40
2018-08-16 14:00:00 25.7 12 Sur 27 Sur 0 -- -- 47
2018-08-16 13:00:00 24.2 15 Sur 27 Sudeste 0 -- -- 51
2018-08-16 12:00:00 21.1 18 Sudeste 39 Sur 0 -- -- 66
2018-08-16 11:00:00 21.3 26 Sur 40 Sur 0 -- -- 63
2018-08-16 10:00:00 21.4 19 Sur 32 Sudeste 0 -- -- 61
2018-08-16 09:00:00 20.5 14 Sudeste 27 Sudeste 0 -- -- 71
2018-08-16 08:00:00 20 16 Sudeste 27 Sudeste 0 -- -- 80
2018-08-16 07:00:00 20.1 13 Sudeste 26 Sudeste 0 -- -- 80
2018-08-16 06:00:00 20.6 16 Sudeste 30 Sudeste 0 -- -- 79
2018-08-16 05:00:00 21.2 17 Sudeste 28 Sur 0 -- -- 74
2018-08-16 04:00:00 21.4 15 Sudeste 28 Sudeste 0 -- -- 75
2018-08-16 03:00:00 21.9 16 Sudeste 30 Sudeste 0 -- -- 76
2018-08-16 02:00:00 22.5 16 Sudeste 30 Sur 0 -- -- 71
2018-08-16 01:00:00 23.2 16 Sudeste 36 Sudeste 0 -- -- 69
2018-08-16 00:00:00 24.3 15 Sudeste 30 Sur 0 -- -- 63
2018-08-15 23:00:00 -- -- -- -- -- -- -- -- --
2018-08-15 22:00:00 -- -- -- -- -- -- -- -- --
2018-08-15 21:00:00 -- -- -- -- -- -- -- -- --
2018-08-15 20:00:00 -- -- -- -- -- -- -- -- --
2018-08-15 19:00:00 -- -- -- -- -- -- -- -- --
2018-08-15 18:00:00 33.1 12 Sur 28 Sudeste 0 -- -- 27
2018-08-15 17:00:00 33.3 12 Sur 28 Sur 0 -- -- 28
2018-08-15 16:00:00 32.9 15 Sudeste 31 Sudeste 0 -- -- 31
2018-08-15 15:00:00 32 11 Sudoeste 28 Sudeste 0 -- -- 32
2018-08-15 14:00:00 30.8 15 Sudeste 34 Sur 0 -- -- 40
2018-08-15 13:00:00 29.1 15 Sudeste 29 Sudeste 0 -- -- 45
2018-08-15 12:00:00 26.7 17 Sur 31 Sudeste 0 -- -- 54
2018-08-15 11:00:00 24.6 16 Sudeste 31 Sudeste 0 -- -- 64
2018-08-15 10:00:00 22.1 17 Sudeste 31 Sudeste 0 -- -- 71
2018-08-15 09:00:00 19.7 13 Sudeste 27 Sudeste 0 -- -- 78
2018-08-15 08:00:00 18.3 3 Nordeste 22 Sudeste 0 -- -- 78
2018-08-15 07:00:00 18.8 11 Sudeste 27 Sudeste 0 -- -- 75
2018-08-15 06:00:00 19 11 Sudeste 23 Sudeste 0 -- -- 75
2018-08-15 05:00:00 19.6 13 Sudeste 24 Sudeste 0 -- -- 74
2018-08-15 04:00:00 20.1 12 Sudeste 23 Sudeste 0 -- -- 72
2018-08-15 03:00:00 20.7 11 Sudeste 23 Sudeste 0 -- -- 67
2018-08-15 02:00:00 20.7 6 Sudeste 14 Sudeste 0 -- -- 57
2018-08-15 01:00:00 22.2 5 Sudeste 20 Este 0 -- -- 37
2018-08-15 00:00:00 22.5 5 Norte 10 Nordeste 0 -- -- 35
2018-08-14 23:00:00 24.1 7 Nordeste 14 Nordeste 0 -- -- 33
2018-08-14 22:00:00 25.9 5 Nordeste 10 Nordeste 0 -- -- 32
2018-08-14 21:00:00 29.1 7 Nordeste 13 Nordeste 0 -- -- 28
2018-08-14 20:00:00 32.1 9 Nordeste 19 Nordeste 0 -- -- 26
2018-08-14 19:00:00 33 7 Norte 29 Este 0 -- -- 26
2018-08-14 18:00:00 32.3 9 Noroeste 22 Sudoeste 0 -- -- 23
2018-08-14 17:00:00 31.3 11 Oeste 22 Noroeste 0 -- -- 24
2018-08-14 16:00:00 32 7 Sudoeste 25 Noroeste 0 -- -- 22
2018-08-14 15:00:00 30.8 6 Oeste 23 Noroeste 0 -- -- 26
2018-08-14 14:00:00 30.6 6 Sudeste 14 Sur 0 -- -- 35
2018-08-14 13:00:00 28.1 5 Nordeste 14 Nordeste 0 -- -- 40
2018-08-14 12:00:00 26.4 3 Sudoeste -- -- -- -- -- 51
2018-08-14 11:00:00 -- -- -- -- -- -- -- -- --
2018-08-14 10:00:00 -- -- -- -- -- -- -- -- --
2018-08-14 09:00:00 -- -- -- -- -- -- -- -- --
2018-08-14 08:00:00 -- -- -- -- -- -- -- -- --
2018-08-14 07:00:00 -- -- -- -- -- -- -- -- --
2018-08-14 06:00:00 -- -- -- -- -- -- -- -- --
2018-08-14 05:00:00 -- -- -- -- -- -- -- -- --
2018-08-14 04:00:00 -- -- -- -- -- -- -- -- --
2018-08-14 03:00:00 -- -- -- -- -- -- -- -- --
2018-08-14 02:00:00 -- -- -- -- -- -- -- -- --
2018-08-14 01:00:00 -- -- -- -- -- -- -- -- --
2018-08-14 00:00:00 -- -- -- -- -- -- -- -- --
2018-08-13 23:00:00 23.9 -- -- -- -- -- -- -- --
2018-08-13 22:00:00 26.3 0 Calma 5 Noroeste 0 -- -- 30
2018-08-13 21:00:00 28.9 0 Calma 20 Noroeste 0 -- -- 23
2018-08-13 20:00:00 31.3 6 Noroeste 25 Noroeste 0 -- -- 22
2018-08-13 19:00:00 31.5 10 Noroeste 28 Noroeste 0 -- -- 22
2018-08-13 18:00:00 31.5 10 Noroeste 33 Noroeste 0 -- -- 22
2018-08-13 17:00:00 30.9 12 Noroeste 29 Noroeste 0 -- -- 26
2018-08-13 16:00:00 30.9 10 Oeste 31 Sudoeste 0 -- -- 26
2018-08-13 15:00:00 30.1 -- -- -- -- 0 -- -- 27
2018-08-13 14:00:00 29.2 14 Sudoeste 25 Sudoeste 0 -- -- 30
2018-08-13 13:00:00 27.7 10 Sudoeste 21 Sudoeste 0.2 -- -- 37
2018-08-13 12:00:00 26.1 8 Sudoeste 18 Sudoeste 0 -- -- 46
2018-08-13 11:00:00 23.8 8 Sur 18 Sur 0 -- -- 61
2018-08-13 10:00:00 20.9 8 Sudeste 14 Sudeste 0 -- -- 79
2018-08-13 09:00:00 18.3 7 Sudeste 15 Sur 0 -- -- 86
2018-08-13 08:00:00 17.3 6 Sur 13 Sur 0 -- -- 87
2018-08-13 07:00:00 17.3 4 Sur 19 Sudeste 0 -- -- 85
2018-08-13 06:00:00 17.7 5 Sur 13 Sudeste 0 -- -- 83
2018-08-13 05:00:00 18 4 Sur 15 Sur 0 -- -- 83
2018-08-13 04:00:00 18.7 6 Sur 26 Sur 0 -- -- 80
2018-08-13 03:00:00 -- -- -- -- -- -- -- -- --
2018-08-13 02:00:00 20.5 15 Sur 28 Sudeste 0.2 -- -- 76
2018-08-13 01:00:00 20.9 11 Sudeste 20 Sudeste 0 -- -- 72
2018-08-13 00:00:00 20.2 3 Nordeste 12 Nordeste 0 -- -- 72
2018-08-12 23:00:00 21.3 5 Norte 22 Nordeste 0.2 -- -- 67
2018-08-12 22:00:00 22.6 14 Nordeste 22 Nordeste 0 -- -- 64
2018-08-12 21:00:00 23.9 12 Nordeste 18 Nordeste 0.2 -- -- 59
2018-08-12 20:00:00 24.2 8 Sur 29 Sur 2.2 -- -- 63
2018-08-12 19:00:00 27.5 10 Sur 48 Sudoeste 0 -- -- 45
2018-08-12 18:00:00 31.9 13 Sudoeste 31 Oeste 0 -- -- 29
2018-08-12 17:00:00 33.1 17 Sudoeste 35 Sudoeste 0 -- -- 28
2018-08-12 16:00:00 32.3 14 Sudoeste 31 Oeste 0 -- -- 30
2018-08-12 15:00:00 32.5 11 Sudoeste 29 Oeste 0 -- -- 29
2018-08-12 14:00:00 31.8 10 Sudoeste 27 Sudoeste 0 -- -- 34
2018-08-12 13:00:00 30.3 10 Sur 20 Sur 0 -- -- 42
2018-08-12 12:00:00 28.2 9 Sur 22 Sudeste 0 -- -- 48
2018-08-12 11:00:00 25.6 9 Sur 21 Sudeste 0 -- -- 55
2018-08-12 10:00:00 23 15 Sudeste 25 Sur 0 -- -- 65
2018-08-12 09:00:00 21.1 11 Sur 27 Sudeste 0 -- -- 73
2018-08-12 08:00:00 20.2 14 Sudeste 29 Sudeste 0 -- -- 77
2018-08-12 07:00:00 20.2 14 Sur 25 Sudeste 0 -- -- 78
2018-08-12 06:00:00 20.5 13 Sudeste 31 Sudeste 0 -- -- 78
2018-08-12 05:00:00 21 16 Sudeste 32 Sudeste 0 -- -- 77
2018-08-12 04:00:00 21.6 17 Sudeste 34 Sudeste 0 -- -- 76
2018-08-12 03:00:00 -- -- -- -- -- 0 -- -- --
2018-08-12 02:00:00 22.8 18 Sudeste 39 Sudeste 0 -- -- 72
2018-08-12 01:00:00 23.5 16 Sudeste 31 Sudeste 0 -- -- 70
2018-08-12 00:00:00 24.9 14 Sudeste 27 Sudeste 0 -- -- 51
2018-08-11 23:00:00 26.7 12 Sudeste 26 Sudeste 0 -- -- 45
2018-08-11 22:00:00 28.1 9 Sur 16 Sur 0 -- -- 38
2018-08-11 21:00:00 30.9 6 Sur 17 Sur 0 -- -- 31
2018-08-11 20:00:00 33.6 10 Sur 19 Sur 0 -- -- 27
2018-08-11 19:00:00 34.1 9 Sur 25 Sur 0 -- -- 27
2018-08-11 18:00:00 34.4 11 Sur 24 Sur 0 -- -- 28
2018-08-11 17:00:00 34.2 12 Sur 26 Sur 0 -- -- 28
2018-08-11 16:00:00 33.5 -- -- -- -- 0 -- -- 30
2018-08-11 15:00:00 31.9 13 Sur 31 Sur 0 -- -- 36
2018-08-11 14:00:00 30.7 14 Sur 32 Sur 0 -- -- 41
2018-08-11 13:00:00 28.7 16 Sur 32 Sur 0 -- -- 47
2018-08-11 12:00:00 26.8 17 Sudeste 29 Sudeste 0 -- -- 54
2018-08-11 11:00:00 24.5 15 Sudeste 30 Sudeste 0 -- -- 65
2018-08-11 10:00:00 22.4 17 Sur 27 Sudeste 0 -- -- 75
2018-08-11 09:00:00 20.6 9 Sudeste 19 Sudeste 0 -- -- 82
2018-08-11 08:00:00 19.1 5 Sur 19 Sudeste 0 -- -- 85
2018-08-11 07:00:00 19.5 13 Sudeste 28 Sudeste 0 -- -- 84
2018-08-11 06:00:00 19.9 12 Sudeste 28 Sudeste 0 -- -- 83
2018-08-11 05:00:00 20.1 14 Sudeste 37 Sudeste 0 -- -- 82
2018-08-11 04:00:00 20.3 19 Sudeste 33 Sudeste 0 -- -- 81
2018-08-11 03:00:00 -- -- -- -- -- 0 -- -- --
2018-08-11 02:00:00 21.1 17 Sudeste 41 Sudeste 0 -- -- 77
2018-08-11 01:00:00 21.8 23 Sudeste 45 Sudeste 0 -- -- 73
2018-08-11 00:00:00 22.9 25 Sudeste 42 Sudeste 0 -- -- 64
2018-08-10 23:00:00 24.2 24 Sudeste 40 Sudeste 0 -- -- 58
2018-08-10 22:00:00 26.2 23 Sudeste 40 Sur 0 -- -- 51
2018-08-10 21:00:00 28.2 10 Sudeste 26 Sudeste 0 -- -- 39
2018-08-10 20:00:00 29.7 10 Sudeste 25 Sudeste 0 -- -- 37
2018-08-10 19:00:00 31.7 12 Sudeste 28 Sudeste 0 -- -- 34
2018-08-10 18:00:00 31.9 12 Sudeste 36 Sur 0 -- -- 33
2018-08-10 17:00:00 32.1 14 Sudeste 29 Sur 0 -- -- 31
2018-08-10 16:00:00 30.5 13 Sudeste 33 Sur 0 -- -- 37
2018-08-10 15:00:00 30.3 15 Sudeste 47 Sudeste 0 -- -- 39
2018-08-10 14:00:00 28.2 17 Sudeste 36 Sudeste 0 -- -- 45
2018-08-10 13:00:00 26.6 22 Sudeste 40 Sudeste 0 -- -- 50
2018-08-10 12:00:00 25.2 24 Sur 39 Sur 0 -- -- 55
2018-08-10 11:00:00 23.4 23 Sur 36 Sur 0 -- -- 58
2018-08-10 10:00:00 21.2 17 Sudeste 34 Sudeste 0 -- -- 61
2018-08-10 09:00:00 17.3 7 Nordeste 14 Nordeste 0 -- -- 65
2018-08-10 08:00:00 15.7 10 Nordeste 19 Nordeste 0 -- -- 67
2018-08-10 07:00:00 15.3 11 Nordeste 20 Nordeste 0 -- -- 67
2018-08-10 06:00:00 15.8 13 Nordeste 21 Nordeste 0 -- -- 65
2018-08-10 05:00:00 16.3 11 Nordeste 24 Nordeste 0 -- -- 62
2018-08-10 04:00:00 16.9 15 Nordeste 23 Nordeste 0 -- -- 60
2018-08-10 03:00:00 -- -- -- -- -- 0 -- -- --
2018-08-10 02:00:00 18.3 13 Nordeste 24 Nordeste 0 -- -- 55
2018-08-10 01:00:00 19.5 14 Nordeste 28 Nordeste 0 -- -- 52
2018-08-10 00:00:00 20.9 12 Nordeste 23 Nordeste 0 -- -- 48
2018-08-09 23:00:00 22.5 0 Calma 8 Norte 0 -- -- 28
2018-08-09 22:00:00 24.4 6 Norte 12 Noroeste 0 -- -- 27
2018-08-09 21:00:00 27 5 Norte 16 Noroeste 0 -- -- 24
2018-08-09 20:00:00 29.3 9 Noroeste 21 Noroeste 0 -- -- 21
2018-08-09 19:00:00 29.5 11 Noroeste 26 Noroeste 0 -- -- 22
2018-08-09 18:00:00 30 10 Oeste 25 Sudoeste 0 -- -- 21
2018-08-09 17:00:00 30 11 Oeste 26 Oeste 0 -- -- 21
2018-08-09 16:00:00 29.6 11 Sudoeste 28 Sudoeste 0 -- -- 22
2018-08-09 15:00:00 29.5 9 Sur 26 Sudoeste 0 -- -- 24
2018-08-09 14:00:00 27.3 7 Oeste 21 Sur 0 -- -- 26
2018-08-09 13:00:00 27.1 9 Sur 21 Sur 0 -- -- 28
2018-08-09 12:00:00 24.4 -- -- -- -- -- -- -- --
2018-08-09 11:00:00 22.8 7 Noroeste 15 Oeste 0 -- -- 39
2018-08-09 10:00:00 20.6 4 Sudoeste 8 Sudoeste 0 -- -- 45
2018-08-09 09:00:00 17.9 2 Sudoeste 7 Sur 0 -- -- 52
2018-08-09 08:00:00 17 6 Sudeste 12 Sudeste 0 -- -- 51
2018-08-09 07:00:00 17.5 4 Sur 8 Sur 0 -- -- 51
2018-08-09 06:00:00 18.4 3 Sur 8 Sur 0 -- -- 53
2018-08-09 05:00:00 18.9 3 Sur 9 Sudeste 0 -- -- 65
2018-08-09 04:00:00 19.5 -- -- -- -- 0 -- -- 69
2018-08-09 03:00:00 -- -- -- -- -- 0 -- -- --
2018-08-09 02:00:00 20.8 5 Sudeste 18 Sudeste 0 -- -- 62
2018-08-09 01:00:00 21.6 7 Este 26 Este 0 -- -- 59
2018-08-09 00:00:00 22.8 11 Sudeste 21 Sudeste 0 -- -- 56
2018-08-08 23:00:00 -- -- -- -- -- 0 -- -- --
2018-08-08 22:00:00 25 13 Sudeste 34 Este 0 -- -- 53
2018-08-08 21:00:00 26.9 17 Sudeste 46 Sudeste 0 -- -- 51
2018-08-08 20:00:00 32.7 14 Sur 37 Sudoeste 0 -- -- 32
2018-08-08 19:00:00 33.5 19 Sudoeste 41 Oeste 0 -- -- 21
2018-08-08 18:00:00 33.6 19 Sudoeste 43 Oeste 0 -- -- 20
2018-08-08 17:00:00 33.4 19 Sudoeste 38 Sudoeste 0 -- -- 22
2018-08-08 16:00:00 33.8 16 Sudoeste 39 Sur 0 -- -- 22
2018-08-08 15:00:00 32.9 18 Sudoeste 44 Sudoeste 0 -- -- 25
2018-08-08 14:00:00 31.8 16 Sudoeste 32 Oeste 0 -- -- 24
2018-08-08 13:00:00 30.6 14 Sudoeste 30 Sudoeste 0 -- -- 27
2018-08-08 12:00:00 28.8 12 Sur 26 Sur 0 -- -- 33
2018-08-08 11:00:00 26.3 15 Sur 28 Sur 0 -- -- 41
2018-08-08 10:00:00 23.2 15 Sudeste 27 Sudeste 0 -- -- 53
2018-08-08 09:00:00 20.1 10 Sur 15 Sur 0 -- -- 63
2018-08-08 08:00:00 18.9 9 Sur 21 Sur 0 -- -- 59
2018-08-08 07:00:00 18.8 9 Sur 16 Sudeste 0 -- -- 54
2018-08-08 06:00:00 19.6 6 Sur 13 Sur 0 -- -- 52
2018-08-08 05:00:00 19.5 4 Sur 10 Sudoeste 0 -- -- 52
2018-08-08 04:00:00 20 5 Sur 15 Sur 0 -- -- 51
2018-08-08 03:00:00 -- -- -- -- -- 0 -- -- --
2018-08-08 02:00:00 21.6 10 Sur 26 Sudeste 0 -- -- 48
2018-08-08 01:00:00 22.5 13 Sudeste 25 Sudeste 0 -- -- 47
2018-08-08 00:00:00 23.4 14 Sudeste 39 Sudeste 0 -- -- 46
2018-08-07 23:00:00 24.6 21 Sudeste 44 Sudeste 0 -- -- 44
2018-08-07 22:00:00 27.4 31 Sudeste 64 Sudeste 0 -- -- 38
2018-08-07 21:00:00 32.1 5 Oeste 26 Oeste 0 -- -- 17
2018-08-07 20:00:00 34.6 9 Oeste 27 Oeste 0 -- -- 15
2018-08-07 19:00:00 35.8 12 Oeste 38 Oeste 0 -- -- 13
2018-08-07 18:00:00 36.3 14 Noroeste 35 Oeste 0 -- -- 13
2018-08-07 17:00:00 35.6 10 Sudoeste 38 Oeste 0 -- -- 18
2018-08-07 16:00:00 35.8 14 Sudoeste 28 Oeste 0 -- -- 18
2018-08-07 15:00:00 35.6 13 Sudoeste 27 Oeste 0 -- -- 20
2018-08-07 14:00:00 34.2 11 Sudoeste 23 Sudoeste 0 -- -- 24
2018-08-07 13:00:00 33 9 Sur 23 Sur 0 -- -- 29
2018-08-07 12:00:00 30.4 11 Sur 22 Sudeste 0 -- -- 34
2018-08-07 11:00:00 27.6 15 Sudeste 24 Sudeste 0 -- -- 41
2018-08-07 10:00:00 25.2 14 Sudeste 24 Sudeste 0 -- -- 45
2018-08-07 09:00:00 23.2 11 Sudeste 23 Sudeste 0 -- -- 44
2018-08-07 08:00:00 21.7 9 Sur 18 Sur 0 -- -- 42
2018-08-07 07:00:00 22.4 6 Sudeste 17 Sur 0 -- -- 40
2018-08-07 06:00:00 23.2 7 Sur 20 Sudeste 0 -- -- 39
2018-08-07 05:00:00 23.9 9 Sudeste 15 Sudeste 0 -- -- 36
2018-08-07 04:00:00 24.3 8 Sur 18 Sudeste 0 -- -- 34
2018-08-07 03:00:00 -- -- -- -- -- 0 -- -- --
2018-08-07 02:00:00 25.8 0 Calma 18 Sudeste 0 -- -- 32
2018-08-07 01:00:00 27 11 Sudeste 24 Sudeste 0 -- -- 30
2018-08-07 00:00:00 28.3 10 Sudeste 33 Sur 0 -- -- 29
2018-08-06 23:00:00 29.5 21 Sudeste -- -- 0 -- -- 30
2018-08-06 22:00:00 31.2 3 Noroeste 22 Noroeste 0 -- -- 20
2018-08-06 21:00:00 32.4 5 Norte 23 Norte 0 -- -- 19
2018-08-06 20:00:00 34.1 14 Norte 34 Norte 0 -- -- 18
2018-08-06 19:00:00 38.7 9 Norte 20 Nordeste 0 -- -- 15
2018-08-06 18:00:00 39 7 Este 22 Nordeste 0 -- -- 16
2018-08-06 17:00:00 37.8 8 Norte 28 Nordeste 0 -- -- 16
2018-08-06 16:00:00 37.3 10 Norte 21 Norte 0 -- -- 18
2018-08-06 15:00:00 36.2 6 Nordeste 14 Nordeste 0 -- -- 21
2018-08-06 14:00:00 34.5 6 Norte 14 Nordeste 0 -- -- 24
2018-08-06 13:00:00 33.4 8 Este 14 Este 0 -- -- 25
2018-08-06 12:00:00 31 5 Sudeste 13 Este 0 -- -- 35
2018-08-06 11:00:00 28.5 6 Sur 13 Sudeste 0 -- -- 39
2018-08-06 10:00:00 25.4 7 Sudeste 15 Sur 0 -- -- 47
2018-08-06 09:00:00 22.6 7 Nordeste 10 Nordeste 0 -- -- 55
2018-08-06 08:00:00 20.8 5 Este 8 Este 0 -- -- 59
2018-08-06 07:00:00 21.5 2 Oeste 12 Sudeste 0 -- -- 57
2018-08-06 06:00:00 22.8 8 Sudeste 19 Sudeste 0 -- -- 54
2018-08-06 05:00:00 23.4 9 Sudeste 17 Sur 0 -- -- 53
2018-08-06 04:00:00 24.3 6 Sudeste 21 Sudeste 0 -- -- 51
2018-08-06 03:00:00 -- -- -- -- -- 0 -- -- --
2018-08-06 02:00:00 26.2 13 Sudeste 30 Sur 0 -- -- 44
2018-08-06 01:00:00 27 12 Sudeste 28 Este 0 -- -- 42
2018-08-06 00:00:00 27.5 14 Sudeste 23 Sudeste 0 -- -- 32
2018-08-05 23:00:00 28.7 2 Nordeste 7 Norte 0 -- -- 27
2018-08-05 22:00:00 31.4 0 Calma 6 Norte 0 -- -- 25
2018-08-05 21:00:00 34.6 0 Calma 3 Sudeste 0 -- -- 23
2018-08-05 20:00:00 37.5 0 Calma 6 Oeste 0 -- -- 19
2018-08-05 19:00:00 36.5 2 Sudoeste 8 Sudoeste 0 -- -- 19
2018-08-05 18:00:00 38 5 Sur 14 Sudeste 0 -- -- 19
2018-08-05 17:00:00 38.9 5 Sur 20 Este 0 -- -- 18
2018-08-05 16:00:00 37.3 8 Sudeste 26 Nordeste 0 -- -- 21
2018-08-05 15:00:00 36.7 5 Sudeste 21 Este -- -- -- 22
2018-08-05 14:00:00 35.2 10 Sudeste 30 Sudeste 0 -- -- 25
2018-08-05 13:00:00 33.6 15 Sur 27 Sudeste 0 -- -- 28
2018-08-05 12:00:00 31.8 12 Sudeste 24 Sudeste 0 -- -- 30
2018-08-05 11:00:00 29.1 8 Este 19 Sudeste 0 -- -- 36
2018-08-05 10:00:00 24.7 8 Nordeste 19 Nordeste 0 -- -- 45
2018-08-05 09:00:00 21.5 15 Nordeste 24 Nordeste 0 -- -- 53
2018-08-05 08:00:00 20.7 13 Nordeste 22 Nordeste 0 -- -- 53
2018-08-05 07:00:00 20.9 11 Nordeste 17 Nordeste 0 -- -- 52
2018-08-05 06:00:00 21.9 8 Nordeste 18 Este 0 -- -- 50
2018-08-05 05:00:00 22.5 9 Este 16 Este 0 -- -- 48
2018-08-05 04:00:00 23.5 3 Nordeste 15 Sur 0 -- -- 46
2018-08-05 03:00:00 -- -- -- -- -- 0 -- -- --
2018-08-05 02:00:00 25.8 14 Sudeste 26 Sudeste 0 -- -- 41
2018-08-05 01:00:00 26.6 13 Sudeste 25 Sudeste 0 -- -- 40
2018-08-05 00:00:00 27.1 3 Sudeste 15 Nordeste 0 -- -- 30
2018-08-04 23:00:00 -- -- -- -- -- 0 -- -- --
2018-08-04 22:00:00 29.7 7 Nordeste 15 Nordeste 0 -- -- 25
2018-08-04 21:00:00 33 8 Nordeste 24 Nordeste 0 -- -- 22
2018-08-04 20:00:00 35.2 15 Nordeste 28 Norte 0 -- -- 20
2018-08-04 19:00:00 36.4 17 Nordeste 35 Nordeste 0 -- -- 19
2018-08-04 18:00:00 36.9 15 Nordeste 35 Nordeste 0 -- -- 18
2018-08-04 17:00:00 36.9 13 Nordeste 28 Nordeste 0 -- -- 19
2018-08-04 16:00:00 36 15 Norte 27 Nordeste 0 -- -- 18
2018-08-04 15:00:00 34.7 10 Nordeste 27 Nordeste 0 -- -- 20
2018-08-04 14:00:00 32.8 14 Norte 26 Nordeste 0 -- -- 25
2018-08-04 13:00:00 31.5 13 Nordeste 23 Nordeste 0 -- -- 25
2018-08-04 12:00:00 29.2 8 Nordeste 16 Nordeste 0 -- -- 29
2018-08-04 11:00:00 26.1 12 Nordeste 23 Nordeste 0 -- -- 35
2018-08-04 10:00:00 23.5 14 Nordeste 24 Nordeste 0 -- -- 39
2018-08-04 09:00:00 21.7 13 Nordeste 23 Nordeste 0 -- -- 44
2018-08-04 08:00:00 19.8 10 Nordeste 15 Nordeste 0 -- -- 45
2018-08-04 07:00:00 18.5 2 Nordeste 8 Nordeste 0 -- -- 43
2018-08-04 06:00:00 20 6 Nordeste 10 Nordeste 0 -- -- 40
2018-08-04 05:00:00 20.7 0 Calma 10 Nordeste 0 -- -- 37
2018-08-04 04:00:00 21.9 7 Nordeste 9 Nordeste 0 -- -- 38
2018-08-04 03:00:00 -- -- -- -- -- 0 -- -- --
2018-08-04 02:00:00 24.8 7 Sudeste 18 Nordeste 0 -- -- 27
2018-08-04 01:00:00 25.8 12 Nordeste 17 Nordeste 0 -- -- 27
2018-08-04 00:00:00 27.3 9 Nordeste 18 Norte 0 -- -- 26
2018-08-03 23:00:00 28.9 8 Nordeste 15 Nordeste 0 -- -- 24
2018-08-03 22:00:00 31.7 9 Nordeste 24 Norte 0 -- -- 22
2018-08-03 21:00:00 34.6 13 Norte 25 Norte 0 -- -- 21
2018-08-03 20:00:00 36.8 14 Norte 28 Norte 0 -- -- 20
2018-08-03 19:00:00 37.7 14 Norte 28 Norte 0 -- -- 19
2018-08-03 18:00:00 38.2 19 Nordeste 37 Nordeste 0 -- -- 19
2018-08-03 17:00:00 38.1 20 Nordeste 31 Nordeste 0 -- -- 19
2018-08-03 16:00:00 38 15 Norte 36 Nordeste 0 -- -- 20
2018-08-03 15:00:00 36.8 14 Nordeste 33 Nordeste 0 -- -- 22
2018-08-03 14:00:00 35.5 18 Norte 36 Nordeste 0 -- -- 23
2018-08-03 13:00:00 34.4 16 Nordeste 31 Nordeste 0 -- -- 23
2018-08-03 12:00:00 31.9 7 Norte 14 Norte 0 -- -- 33
2018-08-03 11:00:00 28.4 6 Nordeste 12 Nordeste 0 -- -- 39
2018-08-03 10:00:00 25.7 8 Nordeste 13 Nordeste 0 -- -- 44
2018-08-03 09:00:00 22.4 6 Nordeste 9 Nordeste 0 -- -- 52
2018-08-03 08:00:00 20.1 5 Este 8 Nordeste 0 -- -- 57
2018-08-03 07:00:00 20.3 3 Nordeste 8 Este 0 -- -- 54
2018-08-03 06:00:00 20.9 6 Este 8 Este 0 -- -- 53
2018-08-03 05:00:00 21.9 0 Calma 9 Nordeste 0 -- -- 50
2018-08-03 04:00:00 23.3 4 Este 13 Sudeste 0 -- -- 48
2018-08-03 03:00:00 -- -- -- -- -- 0 -- -- --
2018-08-03 02:00:00 25.1 6 Sur 16 Sur 0 -- -- 42
2018-08-03 01:00:00 26 5 Norte 30 Sudeste 0 -- -- 36
2018-08-03 00:00:00 26.7 0 Calma 4 Sudoeste 0 -- -- 29
2018-08-02 23:00:00 29.3 0 Calma 3 Este 0 -- -- 26
2018-08-02 22:00:00 31.8 3 Este 6 Este 0 -- -- 22
2018-08-02 21:00:00 35.5 3 Norte 14 Norte 0 -- -- 19
2018-08-02 20:00:00 38.2 7 Norte 17 Norte 0 -- -- 17
2018-08-02 19:00:00 -- -- -- -- -- -- -- -- --
2018-08-02 18:00:00 -- -- -- -- -- -- -- -- --
2018-08-02 17:00:00 -- -- -- -- -- -- -- -- --
2018-08-02 16:00:00 -- -- -- -- -- -- -- -- --
2018-08-02 15:00:00 -- -- -- -- -- -- -- -- --
2018-08-02 14:00:00 34.7 8 Sudoeste 21 Sur 0 -- -- 24
2018-08-02 13:00:00 33.7 12 Sudeste 23 Sudeste 0 -- -- 25
2018-08-02 12:00:00 31.3 15 Sudeste 25 Sur 0 -- -- 26
2018-08-02 11:00:00 28.8 11 Sudeste 23 Sudeste 0 -- -- 31
2018-08-02 10:00:00 25.9 11 Sudeste 19 Sudeste 0 -- -- 37
2018-08-02 09:00:00 22 0 Calma 7 Este 0 -- -- 45
2018-08-02 08:00:00 20.1 2 Noroeste 5 Este 0 -- -- 51
2018-08-02 07:00:00 -- -- -- -- -- 0 -- -- --
2018-08-02 06:00:00 22 0 Calma 19 Sudeste 0 -- -- 44
2018-08-02 05:00:00 22.7 12 Sudeste 26 Sur 0 -- -- 43
2018-08-02 04:00:00 23 12 Sudeste 33 Sudeste -- -- -- 42
2018-08-02 03:00:00 24 19 Sudeste 39 Sudeste 0 -- -- 41
2018-08-02 02:00:00 24.7 20 Sudeste 33 Sudeste 0 -- -- 39
2018-08-02 01:00:00 25.5 18 Sudeste 32 Sudeste 0 -- -- 37
2018-08-02 00:00:00 27 11 Sudeste 22 Sudeste 0 -- -- 31
2018-08-01 23:00:00 28.2 8 Sudeste 18 Sudeste 0 -- -- 26
2018-08-01 22:00:00 30.2 9 Sudeste 15 Sur 0 -- -- 22
2018-08-01 21:00:00 33.3 10 Sur 22 Sur 0 -- -- 20
2018-08-01 20:00:00 37.1 13 Sur 22 Sur 0 -- -- 17
2018-08-01 19:00:00 38.2 6 Sur 21 Sur 0 -- -- 17
2018-08-01 18:00:00 38.4 10 Sur 26 Sur 0 -- -- 18
2018-08-01 17:00:00 37.1 9 Sudoeste 21 Sudoeste 0 -- -- 20
2018-08-01 16:00:00 36.5 10 Sudoeste 26 Oeste 0 -- -- 19
2018-08-01 15:00:00 36.3 7 Sur 23 Sudoeste 0 -- -- 20
2018-08-01 14:00:00 35 6 Sur 19 Sudeste 0 -- -- 22
2018-08-01 13:00:00 32.7 8 Sur 20 Sur 0 -- -- 27
2018-08-01 12:00:00 30.8 11 Sur 24 Sur 0 -- -- 29
2018-08-01 11:00:00 28.1 14 Sudeste 26 Sudeste 0 -- -- 32
2018-08-01 10:00:00 25.2 12 Sur 23 Sur 0 -- -- 38
2018-08-01 09:00:00 22 9 Sudeste 21 Sudeste 0 -- -- 46
2018-08-01 08:00:00 19.4 2 Este 7 Este 0 -- -- 53
2018-08-01 07:00:00 19.3 4 Este 8 Este 0 -- -- 51
2018-08-01 06:00:00 20.3 3 Norte 14 Sudeste 0 -- -- 49
2018-08-01 05:00:00 21.7 9 Sudeste 22 Sur 0 -- -- 48
2018-08-01 04:00:00 21.5 5 Sur 17 Sudeste 0 -- -- 50
2018-08-01 03:00:00 22.4 8 Sudeste 18 Este 0 -- -- 48
2018-08-01 02:00:00 23.3 5 Este 14 Sudeste 0 -- -- 42
2018-08-01 01:00:00 23.3 6 Sudeste 22 Sudeste 0 -- -- 37
2018-08-01 00:00:00 23.9 0 Calma 2 Sudoeste 0 -- -- 29
2018-07-31 23:00:00 26.9 0 Calma 2 Sur 0 -- -- 26
2018-07-31 22:00:00 29.8 0 Calma 6 Sudoeste 0 -- -- 22
2018-07-31 21:00:00 32.2 4 Sudoeste 13 Sudoeste 0 -- -- 20
2018-07-31 20:00:00 35.8 5 Sudoeste 19 Sudoeste 0 -- -- 16
2018-07-31 19:00:00 35.8 8 Sudoeste 22 Oeste 0 -- -- 17
2018-07-31 18:00:00 36.2 10 Sudoeste 32 Sudoeste 0 -- -- 17
2018-07-31 17:00:00 34.9 5 Sur 20 Oeste 0 -- -- 18
2018-07-31 16:00:00 33.4 10 Oeste 23 Sudoeste 0 -- -- 19
2018-07-31 15:00:00 -- -- -- -- -- -- -- -- --
2018-07-31 14:00:00 -- -- -- -- -- -- -- -- --
2018-07-31 13:00:00 -- -- -- -- -- -- -- -- --
2018-07-31 12:00:00 -- -- -- -- -- -- -- -- --
2018-07-31 11:00:00 -- -- -- -- -- -- -- -- --
2018-07-31 10:00:00 22.7 9 Nordeste 15 Nordeste 0 -- -- 33
2018-07-31 09:00:00 18.2 3 Norte 6 Nordeste 0 -- -- 43
2018-07-31 08:00:00 15.6 2 Nordeste 4 Norte 0 -- -- 45
2018-07-31 07:00:00 16.1 2 Sudeste 10 Nordeste 0 -- -- 41
2018-07-31 06:00:00 16.1 7 Nordeste 11 Norte 0 -- -- 41
2018-07-31 05:00:00 16.7 2 Sudeste 7 Sudeste 0 -- -- 39
2018-07-31 04:00:00 18.2 2 Sur 4 Sur 0 -- -- 36
2018-07-31 03:00:00 19.3 0 Calma 0 Calma 0 -- -- 34
2018-07-31 02:00:00 20.2 0 Calma 2 Sudeste 0 -- -- 32
2018-07-31 01:00:00 21.5 0 Calma 2 Sudeste 0 -- -- 31
2018-07-31 00:00:00 23.4 0 Calma 4 Nordeste 0 -- -- 28
2018-07-30 23:00:00 25 0 Calma 4 Norte 0 -- -- 27
2018-07-30 22:00:00 27.4 2 Nordeste 10 Noroeste 0 -- -- 25
2018-07-30 21:00:00 30.4 5 Norte 18 Noroeste 0 -- -- 21
2018-07-30 20:00:00 33 7 Oeste 19 Noroeste 0 -- -- 18
2018-07-30 19:00:00 33.7 7 Sudoeste 22 Sudoeste 0 -- -- 18
2018-07-30 18:00:00 33.7 6 Sudoeste 31 Sudoeste 0 -- -- 17
2018-07-30 17:00:00 33.2 10 Oeste 24 Sudoeste 0 -- -- 17
2018-07-30 16:00:00 32.7 10 Sudoeste 23 Sudoeste 0 -- -- 18
2018-07-30 15:00:00 31.5 8 Oeste 20 Sudoeste 0 -- -- 20
2018-07-30 14:00:00 30.4 9 Sudoeste 22 Sudoeste 0 -- -- 22
2018-07-30 13:00:00 28.8 9 Sudoeste 17 Oeste 0 -- -- 23
2018-07-30 12:00:00 27 5 Sudoeste 11 Oeste 0 -- -- 23
2018-07-30 11:00:00 23.7 6 Sudoeste 9 Sudoeste 0 -- -- 29
2018-07-30 10:00:00 20.1 4 Sur 8 Sudeste 0 -- -- 33
2018-07-30 09:00:00 16.1 0 Calma 8 Sur 0 -- -- 40
2018-07-30 08:00:00 13.5 2 Sur 4 Sudeste 0 -- -- 42
2018-07-30 07:00:00 14 0 Calma 4 Nordeste 0 -- -- 38
2018-07-30 06:00:00 15.1 3 Nordeste 4 Nordeste 0 -- -- 37
2018-07-30 05:00:00 16.9 2 Noroeste 5 Nordeste 0 -- -- 34
2018-07-30 04:00:00 17.5 0 Calma 5 Sudeste 0 -- -- 33
2018-07-30 03:00:00 18.9 0 Calma 3 Sur 0 -- -- 30
2018-07-30 02:00:00 20.2 4 Sur 11 Sur 0 -- -- 27
2018-07-30 01:00:00 21.3 3 Sudoeste 6 Sur 0 -- -- 24
2018-07-30 00:00:00 22.9 0 Calma 5 Norte 0 -- -- 22
2018-07-29 23:00:00 24.9 4 Noroeste 8 Noroeste 0 -- -- 19
2018-07-29 22:00:00 26.3 3 Noroeste 9 Noroeste 0 -- -- 17
2018-07-29 21:00:00 28.4 6 Noroeste 19 Noroeste 0 -- -- 16
2018-07-29 20:00:00 30.7 13 Noroeste 25 Noroeste 0 -- -- 13
2018-07-29 19:00:00 31.8 9 Oeste 26 Noroeste 0 -- -- 13
2018-07-29 18:00:00 31.3 12 Noroeste 28 Noroeste 0 -- -- 14
2018-07-29 17:00:00 31.2 13 Noroeste 28 Noroeste 0 -- -- 14
2018-07-29 16:00:00 31.2 10 Oeste 26 Sudoeste 0 -- -- 22
2018-07-29 15:00:00 29.7 14 Sudoeste 30 Sudoeste 0 -- -- 24
2018-07-29 14:00:00 28.6 12 Sudoeste 33 Sudoeste 0 -- -- 31
2018-07-29 13:00:00 26.7 13 Oeste 28 Noroeste 0 -- -- 31
2018-07-29 12:00:00 26.1 11 Sudoeste 28 Sudoeste 0 -- -- 34
2018-07-29 11:00:00 23.6 6 Sudoeste 16 Oeste 0 -- -- 40
2018-07-29 10:00:00 21.2 5 Oeste 14 Sudoeste 0 -- -- 46
2018-07-29 09:00:00 18.9 3 Sudoeste 6 Sur 0 -- -- 46
2018-07-29 08:00:00 16.6 2 Sur 6 Sur 0 -- -- 43
2018-07-29 07:00:00 16.6 4 Sur 6 Sur 0 -- -- 34
2018-07-29 06:00:00 16.8 3 Sur 6 Sudoeste 0 -- -- 28
2018-07-29 05:00:00 17 2 Sur 5 Sur 0 -- -- 25
2018-07-29 04:00:00 18.3 0 Calma 6 Sudeste 0 -- -- 24
2018-07-29 03:00:00 19.3 4 Sur 8 Sur 0 -- -- 21
2018-07-29 02:00:00 20.5 3 Sur 6 Sur 0 -- -- 18
2018-07-29 01:00:00 21.7 0 Calma 5 Noroeste 0 -- -- 19
2018-07-29 00:00:00 23.3 3 Norte 6 Noroeste 0 -- -- 18
2018-07-28 23:00:00 25.5 2 Sur 6 Sudoeste 0 -- -- 20
2018-07-28 22:00:00 28.1 3 Noroeste 11 Sudoeste 0 -- -- 19
2018-07-28 21:00:00 30.5 6 Oeste 18 Sudoeste 0 -- -- 12
2018-07-28 20:00:00 32.8 8 Oeste 24 Oeste 0 -- -- 13
2018-07-28 19:00:00 33.5 8 Oeste 28 Noroeste 0 -- -- 12
2018-07-28 18:00:00 33.2 12 Oeste 24 Sudoeste 0 -- -- 12
2018-07-28 17:00:00 32.7 9 Sudoeste 24 Oeste 0 -- -- 13
2018-07-28 16:00:00 31.9 12 Oeste 28 Oeste 0 -- -- 11
2018-07-28 15:00:00 30.7 11 Oeste 24 Oeste 0 -- -- 13
2018-07-28 14:00:00 29.4 13 Oeste 30 Sudoeste 0 -- -- 18
2018-07-28 13:00:00 27.7 10 Oeste 23 Sudoeste 0 -- -- 26
2018-07-28 12:00:00 25.9 11 Oeste 24 Oeste 0 -- -- 30
2018-07-28 11:00:00 24 7 Oeste 15 Noroeste 0 -- -- 39
2018-07-28 10:00:00 21.4 3 Oeste 8 Sur 0 -- -- 45
2018-07-28 09:00:00 17.9 4 Sur 8 Sur 0 -- -- 52
2018-07-28 08:00:00 15.5 0 Calma 7 Sur 0 -- -- 52
2018-07-28 07:00:00 15.8 0 Calma 4 Sur 0 -- -- 49
2018-07-28 06:00:00 17.1 2 Sur 5 Sudeste 0 -- -- 45
2018-07-28 05:00:00 18.1 0 Calma 4 Sur 0 -- -- 43
2018-07-28 04:00:00 19.4 2 Sur 4 Sur 0 -- -- 41
2018-07-28 03:00:00 20.8 3 Sur 5 Sur 0 -- -- 39
2018-07-28 02:00:00 22.8 0 Calma 6 Noroeste 0 -- -- 35
2018-07-28 01:00:00 24.3 2 Oeste 6 Noroeste 0 -- -- 32
2018-07-28 00:00:00 25.3 0 Calma 6 Noroeste 0 -- -- 27
2018-07-27 23:00:00 26.7 3 Noroeste 7 Noroeste 0 -- -- 23
2018-07-27 22:00:00 28.3 0 Calma 18 Noroeste 0 -- -- 23
2018-07-27 21:00:00 30.3 7 Noroeste 23 Noroeste 0 -- -- 23
2018-07-27 20:00:00 31.8 8 Noroeste 26 Oeste 0 -- -- 22
2018-07-27 19:00:00 33.7 15 Sudoeste 28 Sudoeste 0 -- -- 17
2018-07-27 18:00:00 34.2 15 Sudoeste 35 Oeste 0 -- -- 19
2018-07-27 17:00:00 33.8 14 Sudoeste 33 Sudoeste 0 -- -- 18
2018-07-27 16:00:00 33 15 Sudoeste 34 Sur 0 -- -- 20
2018-07-27 15:00:00 33.1 13 Sudoeste 32 Sur 0 -- -- 21
2018-07-27 14:00:00 31.9 10 Sudoeste 24 Oeste 0 -- -- 22
2018-07-27 13:00:00 30 9 Sudoeste 24 Sudoeste 0 -- -- 26
2018-07-27 12:00:00 28.5 9 Oeste 19 Sudoeste 0 -- -- 28
2018-07-27 11:00:00 26.3 6 Sudoeste 13 Sudoeste 0 -- -- 32
2018-07-27 10:00:00 22.4 5 Sur 8 Sudoeste 0 -- -- 48
2018-07-27 09:00:00 18.2 0 Calma 3 Sudeste 0 -- -- 51
2018-07-27 08:00:00 15.7 0 Calma 4 Sur 0 -- -- 52
2018-07-27 07:00:00 16.2 3 Sur 5 Sudeste 0 -- -- 47
2018-07-27 06:00:00 17.1 0 Calma 4 Este 0 -- -- 45
2018-07-27 05:00:00 18.3 0 Calma 4 Noroeste 0 -- -- 41
2018-07-27 04:00:00 19.6 0 Calma 9 Sudeste 0 -- -- 39
2018-07-27 03:00:00 21.2 4 Sudeste 8 Sudeste 0 -- -- 36
2018-07-27 02:00:00 22.6 0 Calma 5 Oeste 0 -- -- 35
2018-07-27 01:00:00 24.7 3 Noroeste 11 Noroeste 0 -- -- 30
2018-07-27 00:00:00 25.5 6 Noroeste 14 Noroeste 0 -- -- 29
2018-07-26 23:00:00 26.5 3 Noroeste 6 Noroeste 0 -- -- 29
2018-07-26 22:00:00 28.5 5 Sur 6 Sur 0 -- -- 21
2018-07-26 21:00:00 31.2 5 Sudoeste 15 Sudoeste 0 -- -- 19
2018-07-26 20:00:00 33.2 8 Oeste 22 Sudoeste 0 -- -- 18
2018-07-26 19:00:00 34.6 11 Sur 26 Sudoeste 0 -- -- 16
2018-07-26 18:00:00 34.1 12 Sudoeste 25 Sur 0 -- -- 18
2018-07-26 17:00:00 35.2 8 Sur 23 Sur 0 -- -- 18
2018-07-26 16:00:00 33.1 10 Sudoeste 25 Sudoeste 0 -- -- 20
2018-07-26 15:00:00 32.8 6 Oeste 26 Oeste 0 -- -- 22
2018-07-26 14:00:00 31 9 Sudoeste 22 Oeste 0 -- -- 24
2018-07-26 13:00:00 29.4 6 Oeste 17 Noroeste 0 -- -- 28
2018-07-26 12:00:00 27.5 4 Oeste 12 Sudoeste 0 -- -- 37
2018-07-26 11:00:00 24.7 6 Sudoeste 13 Sur 0 -- -- 46
2018-07-26 10:00:00 22.6 6 Sur 17 Sur 0 -- -- 58
2018-07-26 09:00:00 19 3 Sur 6 Sudeste 0 -- -- 77
2018-07-26 08:00:00 17.6 3 Sur 6 Sur 0 -- -- 80
2018-07-26 07:00:00 17.9 5 Sur 13 Sur 0 -- -- 77
2018-07-26 06:00:00 18.5 3 Sur 9 Sur 0 -- -- 74
2018-07-26 05:00:00 19.5 4 Sur 10 Sur 0 -- -- 70
2018-07-26 04:00:00 20.6 4 Sur 13 Sudeste 0 -- -- 67
2018-07-26 03:00:00 21.4 5 Sudeste -- -- -- -- -- 61
2018-07-26 02:00:00 21 2 Oeste 6 Oeste 0 -- -- 45
2018-07-26 01:00:00 22.2 4 Sur 22 Sudeste 0 -- -- 35
2018-07-26 00:00:00 22.1 2 Este 5 Norte 0 -- -- 29
2018-07-25 23:00:00 26.1 3 Sur 4 Sudoeste 0 -- -- 24
2018-07-25 22:00:00 29.1 0 Calma 8 Sudoeste 0 -- -- 22
2018-07-25 21:00:00 31.4 5 Sudoeste 20 Oeste 0 -- -- 18
2018-07-25 20:00:00 33.8 7 Oeste 21 Oeste 0 -- -- 16
2018-07-25 19:00:00 34.6 8 Sudoeste 28 Sudoeste 0 -- -- 17
2018-07-25 18:00:00 35.9 9 Sur 22 Sur 0 -- -- 17
2018-07-25 17:00:00 34.1 14 Sudoeste 28 Sudoeste 0 -- -- 19
2018-07-25 16:00:00 33.6 7 Oeste 24 Noroeste 0 -- -- 18
2018-07-25 15:00:00 32.3 12 Oeste 29 Sudoeste 0 -- -- 20
2018-07-25 14:00:00 32.7 5 Sudeste 34 Sur 0 -- -- 22
2018-07-25 13:00:00 30.3 3 Sur 12 Oeste 0 -- -- 25
2018-07-25 12:00:00 28.5 4 Oeste 11 Noroeste 0 -- -- 29
2018-07-25 11:00:00 25.9 3 Oeste 6 Noroeste 0 -- -- 27
2018-07-25 10:00:00 21.9 3 Sur 6 Sur 0 -- -- 36
2018-07-25 09:00:00 17.2 0 Calma 4 Sur 0 -- -- 49
2018-07-25 08:00:00 14.7 2 Sur 4 Sur 0 -- -- 53
2018-07-25 07:00:00 14.5 0 Calma 4 Sur 0 -- -- 51
2018-07-25 06:00:00 15.5 0 Calma 3 Norte 0 -- -- 48
2018-07-25 05:00:00 17 0 Calma 4 Norte 0 -- -- 45
2018-07-25 04:00:00 18.5 0 Calma 2 Sur 0 -- -- 45
2018-07-25 03:00:00 20.2 0 Calma 3 Este 0 -- -- 41
2018-07-25 02:00:00 21.6 0 Calma 3 Nordeste 0 -- -- 38
2018-07-25 01:00:00 23.7 0 Calma 9 Noroeste 0 -- -- 35
2018-07-25 00:00:00 24.9 4 Noroeste 10 Noroeste 0 -- -- 33
2018-07-24 23:00:00 26.1 3 Nordeste 5 Nordeste 0 -- -- 30
2018-07-24 22:00:00 28.4 2 Norte 12 Noroeste 0 -- -- 27
2018-07-24 21:00:00 30.6 5 Noroeste 16 Sudoeste 0 -- -- 23
2018-07-24 20:00:00 33 5 Oeste 22 Sudoeste 0 -- -- 20
2018-07-24 19:00:00 33.7 12 Sudoeste 25 Sudoeste 0 -- -- 19
2018-07-24 18:00:00 33.3 9 Oeste 35 Sudoeste 0 -- -- 20
2018-07-24 17:00:00 32.9 9 Oeste 25 Noroeste 0 -- -- 20
2018-07-24 16:00:00 31.9 5 Sudoeste 27 Oeste 0 -- -- 21
2018-07-24 15:00:00 30.5 11 Noroeste 25 Sudoeste 0 -- -- 25
2018-07-24 14:00:00 29.4 12 Sudoeste 21 Oeste 0 -- -- 25
2018-07-24 13:00:00 27.8 8 Noroeste 22 Noroeste 0 -- -- 31
2018-07-24 12:00:00 26.4 12 Noroeste 22 Noroeste 0 -- -- 34
2018-07-24 11:00:00 24.7 6 Oeste 18 Sudoeste 0 -- -- 41
2018-07-24 10:00:00 22.2 6 Sudoeste 13 Sudoeste 0 -- -- 45
2018-07-24 09:00:00 18.7 3 Sur 7 Sudeste 0 -- -- 49
2018-07-24 08:00:00 16 0 Calma 4 Sur 0 -- -- 46
2018-07-24 07:00:00 16.2 0 Calma 4 Sur 0 -- -- 41
2018-07-24 06:00:00 17.3 3 Sur 4 Sur 0 -- -- 39
2018-07-24 05:00:00 18 3 Sur 5 Sudeste 0 -- -- 39
2018-07-24 04:00:00 18.8 0 Calma 3 Sur 0 -- -- 38
2018-07-24 03:00:00 20.1 2 Sur 5 Sudeste 0 -- -- 36
2018-07-24 02:00:00 21.3 2 Sur 7 Sur 0 -- -- 33
2018-07-24 01:00:00 22.3 0 Calma -- -- 0 -- -- 33
2018-07-24 00:00:00 23.7 0 Calma 4 Noroeste 0 -- -- 30
2018-07-23 23:00:00 26.2 0 Calma 8 Sur 0 -- -- 27
2018-07-23 22:00:00 28.9 4 Sur 9 Sudoeste 0 -- -- 24
2018-07-23 21:00:00 31.4 5 Sudoeste 22 Sudoeste 0 -- -- 20
2018-07-23 20:00:00 33.9 10 Sudoeste 23 Sudoeste 0 -- -- 18
2018-07-23 19:00:00 35.3 9 Sur 22 Sudoeste 0 -- -- 20
2018-07-23 18:00:00 34.6 10 Sudoeste 28 Sur 0 -- -- 19
2018-07-23 17:00:00 34.2 9 Sudoeste 24 Sudoeste 0 -- -- 18
2018-07-23 16:00:00 33.3 12 Sudoeste 28 Sudoeste 0 -- -- 19
2018-07-23 15:00:00 33.3 10 Sur 26 Sur 0 -- -- 25
2018-07-23 14:00:00 31.1 8 Sudoeste 24 Sur 0 -- -- 30
2018-07-23 13:00:00 29.9 8 Sur 21 Sur 0 -- -- 38
2018-07-23 12:00:00 27.7 10 Sudeste 21 Sur 0 -- -- 47
2018-07-23 11:00:00 24.7 13 Sur 24 Sudeste 0 -- -- 56
2018-07-23 10:00:00 22 14 Sudeste 29 Sudeste 0 -- -- 70
2018-07-23 09:00:00 19.5 13 Sudeste 24 Sudeste 0 -- -- 81
2018-07-23 08:00:00 17.8 4 Sudeste 18 Sudeste 0 -- -- 83
2018-07-23 07:00:00 17.9 9 Sudeste 20 Sur 0 -- -- 81
2018-07-23 06:00:00 18.4 10 Sudeste 24 Sudeste 0 -- -- 76
2018-07-23 05:00:00 19 14 Sudeste 23 Sudeste 0 -- -- 74
2018-07-23 04:00:00 19.6 14 Sudeste 28 Sudeste 0 -- -- 70
2018-07-23 03:00:00 20.2 14 Sudeste 24 Sur 0 -- -- 68
2018-07-23 02:00:00 21 12 Sudeste 25 Sudeste 0 -- -- 64
2018-07-23 01:00:00 21.8 11 Sudeste 24 Sudeste 0 -- -- 61
2018-07-23 00:00:00 22.9 12 Sudeste 30 Sudeste 0 -- -- 58
2018-07-22 23:00:00 24.5 3 Nordeste 7 Este 0 -- -- 34
2018-07-22 22:00:00 27.1 3 Nordeste 8 Norte 0 -- -- 30
2018-07-22 21:00:00 29.2 5 Noroeste 18 Oeste 0 -- -- 27
2018-07-22 20:00:00 31.9 7 Noroeste 13 Oeste 0 -- -- 26
2018-07-22 19:00:00 30.9 5 Oeste 21 Oeste 0 -- -- 27
2018-07-22 18:00:00 31.2 4 Nordeste 20 Noroeste 0 -- -- 30
2018-07-22 17:00:00 30.1 7 Oeste 23 Sudoeste 0 -- -- 29
2018-07-22 16:00:00 30.5 5 Sur 26 Oeste 0 -- -- 29
2018-07-22 15:00:00 29.1 9 Sudoeste 23 Oeste 0 -- -- 31
2018-07-22 14:00:00 28.9 7 Sur 19 Sur 0 -- -- 38
2018-07-22 13:00:00 27.9 12 Sur 27 Sur 0 -- -- 43
2018-07-22 12:00:00 25.9 11 Sudeste 26 Este 0 -- -- 50
2018-07-22 11:00:00 23.9 13 Sudeste 24 Sur 0 -- -- 55
2018-07-22 10:00:00 22.1 8 Este 18 Este 0 -- -- 55
2018-07-22 09:00:00 19.1 3 Nordeste 16 Nordeste 0 -- -- 60
2018-07-22 08:00:00 17.9 10 Nordeste 19 Nordeste 0 -- -- 60
2018-07-22 07:00:00 18.4 9 Nordeste 24 Este 0 -- -- 56
2018-07-22 06:00:00 19.3 9 Este 24 Nordeste 0 -- -- 52
2018-07-22 05:00:00 19.4 17 Nordeste 37 Nordeste 0 -- -- 51
2018-07-22 04:00:00 19.6 20 Nordeste 36 Nordeste 0 -- -- 49
2018-07-22 03:00:00 20.2 22 Nordeste -- -- -- -- -- 46
2018-07-22 02:00:00 20.5 23 Nordeste 35 Nordeste 0 -- -- 49
2018-07-22 01:00:00 20.9 22 Nordeste 38 Nordeste 0 -- -- 50
2018-07-22 00:00:00 21.3 21 Nordeste 35 Nordeste 0 -- -- 51
2018-07-21 23:00:00 22 13 Nordeste 27 Nordeste 0 -- -- 47
2018-07-21 22:00:00 24.4 12 Nordeste 21 Nordeste 0 -- -- 36
2018-07-21 21:00:00 27.8 6 Norte 18 Noroeste 0 -- -- 28
2018-07-21 20:00:00 29.7 9 Norte 23 Noroeste 0 -- -- 25
2018-07-21 19:00:00 30.5 8 Noroeste 61 Oeste 0 -- -- 22
2018-07-21 18:00:00 30 9 Oeste 31 Noroeste 0 -- -- 25
2018-07-21 17:00:00 29 9 Noroeste 25 Noroeste 0 -- -- 27
2018-07-21 16:00:00 28.7 9 Sudoeste 27 Sudoeste 0 -- -- 27
2018-07-21 15:00:00 27.7 10 Oeste 25 Sudoeste 0 -- -- 32
2018-07-21 14:00:00 26.8 9 Oeste 23 Sudoeste 0 -- -- 34
2018-07-21 13:00:00 26.8 7 Este 18 Nordeste 0 -- -- 35
2018-07-21 12:00:00 24.1 6 Nordeste 17 Nordeste 0 -- -- 42
2018-07-21 11:00:00 21.5 8 Norte 16 Norte 0 -- -- 52
2018-07-21 10:00:00 18.9 11 Nordeste 20 Nordeste 0 -- -- 61
2018-07-21 09:00:00 16.3 15 Nordeste 22 Nordeste 0 -- -- 71
2018-07-21 08:00:00 14.9 12 Nordeste 17 Nordeste 0 -- -- 76
2018-07-21 07:00:00 15 10 Nordeste 18 Nordeste 0 -- -- 73
2018-07-21 06:00:00 15.6 11 Nordeste 18 Nordeste 0 -- -- 70
2018-07-21 05:00:00 16.2 10 Nordeste 17 Nordeste 0 -- -- 67
2018-07-21 04:00:00 16.7 7 Nordeste 11 Nordeste 0 -- -- 64
2018-07-21 03:00:00 17.4 7 Nordeste 15 Norte 0 -- -- 61
2018-07-21 02:00:00 18 9 Nordeste 18 Norte 0 -- -- 59
2018-07-21 01:00:00 18.8 13 Norte 23 Nordeste 0 -- -- 58
2018-07-21 00:00:00 19.7 12 Norte 27 Nordeste 0 -- -- 58
2018-07-20 23:00:00 21.9 17 Nordeste 31 Norte 0 -- -- 52
2018-07-20 22:00:00 25.2 9 Noroeste 29 Noroeste 0 -- -- 33
2018-07-20 21:00:00 26.9 17 Noroeste 32 Noroeste 0 -- -- 30
2018-07-20 20:00:00 29.1 14 Noroeste 29 Noroeste 0 -- -- 25
2018-07-20 19:00:00 30.3 13 Oeste 33 Noroeste 0 -- -- 25
2018-07-20 18:00:00 31.4 14 Sudoeste 30 Sudoeste 0 -- -- 21
2018-07-20 17:00:00 30.6 7 Oeste 28 Sudoeste 0 -- -- 20
2018-07-20 16:00:00 30.7 15 Sudoeste 32 Oeste 0 -- -- 19
2018-07-20 15:00:00 29.7 11 Noroeste 28 Oeste 0 -- -- 22
2018-07-20 14:00:00 29 10 Sudoeste 26 Sudoeste 0 -- -- 23
2018-07-20 13:00:00 27.9 9 Sudoeste 24 Oeste 0 -- -- 25
2018-07-20 12:00:00 26.2 10 Sudoeste 21 Sudoeste 0 -- -- 26
2018-07-20 11:00:00 24 6 Oeste 17 Noroeste 0 -- -- 31
2018-07-20 10:00:00 20.7 4 Oeste 10 Oeste 0 -- -- 36
2018-07-20 09:00:00 16.3 3 Sur 8 Sur 0 -- -- 44
2018-07-20 08:00:00 13.9 3 Sur 5 Noroeste 0 -- -- 44
2018-07-20 07:00:00 14.1 0 Calma 6 Sur 0 -- -- 44
2018-07-20 06:00:00 14.9 0 Calma 2 Sur 0 -- -- 42
2018-07-20 05:00:00 15.6 0 Calma 3 Sur 0 -- -- 37
2018-07-20 04:00:00 17 0 Calma 3 Sur 0 -- -- 33
2018-07-20 03:00:00 18.6 2 Sur 4 Sur 0 -- -- 31
2018-07-20 02:00:00 20.4 0 Calma 5 Este 0 -- -- 28
2018-07-20 01:00:00 22.5 4 Nordeste 8 Noroeste 0 -- -- 22
2018-07-20 00:00:00 24.2 3 Noroeste 8 Noroeste 0 -- -- 19